JP-0083 weather

Tonosho Highashi (Meguriike) Helipad
Meguriike, Kagawa Prefecture, Japan

Public forecast

Using degrees Celsius for public forecast. Weather courtesy of forecast.io.

METAR (pilot weather report)

Closest report is Takamatsu Airport, 17.7 nm (32.8 km) SSW. Retrieved 2019/05/23 12:00 UTC (39 minutes ago):

RJOT 231200Z 23006KT 9999 FEW035 21/07 Q1010

TAF (pilot weather forecast)

Closest forecast is Takamatsu Airport, 17.7 nm (32.8 km) SSW. Retrieved 2019/05/23 12:00 UTC (39 minutes ago):

TAF RJOT 231109Z 2312/2418 21006KT CAVOK BECMG 2409/2412 15006KT